sensor_id;sensor_type;location;lat;lon;timestamp;pressure;altitude;pressure_sealevel;temperature;humidity
20612;BME280;10465;42.686;23.364;2022-07-29T00:01:31;95128.91;;;22.28;71.56
20612;BME280;10465;42.686;23.364;2022-07-29T00:03:56;95138.75;;;22.58;71.08
20612;BME280;10465;42.686;23.364;2022-07-29T00:06:22;95156.56;;;22.69;70.53
20612;BME280;10465;42.686;23.364;2022-07-29T00:08:47;95161.53;;;22.64;70.38
20612;BME280;10465;42.686;23.364;2022-07-29T00:11:12;95173.94;;;22.72;69.89
20612;BME280;10465;42.686;23.364;2022-07-29T00:13:38;95164.00;;;22.87;69.69
20612;BME280;10465;42.686;23.364;2022-07-29T00:16:04;94994.91;;;21.84;69.08
20612;BME280;10465;42.686;23.364;2022-07-29T00:18:29;95159.84;;;22.93;68.89
20612;BME280;10465;42.686;23.364;2022-07-29T00:20:55;95164.94;;;23.05;68.50
20612;BME280;10465;42.686;23.364;2022-07-29T00:23:20;95165.69;;;23.02;68.78
20612;BME280;10465;42.686;23.364;2022-07-29T00:25:46;95174.19;;;23.08;69.33
20612;BME280;10465;42.686;23.364;2022-07-29T00:28:11;95142.84;;;22.92;69.56
20612;BME280;10465;42.686;23.364;2022-07-29T00:30:37;95161.88;;;23.10;69.81
20612;BME280;10465;42.686;23.364;2022-07-29T00:33:02;95164.56;;;23.10;70.03
20612;BME280;10465;42.686;23.364;2022-07-29T00:35:28;95154.44;;;22.93;70.55
20612;BME280;10465;42.686;23.364;2022-07-29T00:38:09;95134.28;;;22.83;70.68
20612;BME280;10465;42.686;23.364;2022-07-29T00:40:34;95158.72;;;22.98;70.70
20612;BME280;10465;42.686;23.364;2022-07-29T00:43:00;95133.94;;;22.88;70.71
20612;BME280;10465;42.686;23.364;2022-07-29T00:45:26;95157.44;;;22.88;71.65
20612;BME280;10465;42.686;23.364;2022-07-29T00:47:52;95150.91;;;22.85;71.85
20612;BME280;10465;42.686;23.364;2022-07-29T00:50:18;95167.44;;;22.80;72.29
20612;BME280;10465;42.686;23.364;2022-07-29T00:52:43;95163.19;;;22.79;72.49
20612;BME280;10465;42.686;23.364;2022-07-29T00:55:11;95174.00;;;22.83;72.53
20612;BME280;10465;42.686;23.364;2022-07-29T00:57:38;95179.41;;;22.83;72.26
20612;BME280;10465;42.686;23.364;2022-07-29T01:00:06;95175.50;;;22.77;72.62
20612;BME280;10465;42.686;23.364;2022-07-29T01:02:32;95175.88;;;22.75;73.03
20612;BME280;10465;42.686;23.364;2022-07-29T01:04:57;95170.47;;;22.75;73.02
20612;BME280;10465;42.686;23.364;2022-07-29T01:07:24;95146.09;;;22.57;73.27
20612;BME280;10465;42.686;23.364;2022-07-29T01:09:51;95167.00;;;22.75;73.48
20612;BME280;10465;42.686;23.364;2022-07-29T01:12:20;95163.09;;;22.65;73.94
20612;BME280;10465;42.686;23.364;2022-07-29T01:14:47;95158.50;;;22.69;74.20
20612;BME280;10465;42.686;23.364;2022-07-29T01:17:26;95154.16;;;22.54;74.97
20612;BME280;10465;42.686;23.364;2022-07-29T01:30:14;95137.47;;;22.37;75.97
20612;BME280;10465;42.686;23.364;2022-07-29T01:32:40;95150.28;;;22.55;76.05
20612;BME280;10465;42.686;23.364;2022-07-29T01:35:23;95151.47;;;22.57;75.99
20612;BME280;10465;42.686;23.364;2022-07-29T01:38:02;95152.19;;;22.51;75.96
20612;BME280;10465;42.686;23.364;2022-07-29T01:43:17;95145.91;;;22.36;76.94
20612;BME280;10465;42.686;23.364;2022-07-29T01:45:47;95082.00;;;21.92;77.07
20612;BME280;10465;42.686;23.364;2022-07-29T01:48:23;95142.84;;;22.37;76.39
20612;BME280;10465;42.686;23.364;2022-07-29T01:50:53;95133.59;;;22.38;76.41
20612;BME280;10465;42.686;23.364;2022-07-29T01:53:30;95144.03;;;22.43;76.19
20612;BME280;10465;42.686;23.364;2022-07-29T01:55:59;95129.00;;;22.39;76.30
20612;BME280;10465;42.686;23.364;2022-07-29T01:58:27;95132.13;;;22.48;76.08
20612;BME280;10465;42.686;23.364;2022-07-29T02:00:56;95132.47;;;22.43;76.17
20612;BME280;10465;42.686;23.364;2022-07-29T02:03:23;95138.25;;;22.41;76.41
20612;BME280;10465;42.686;23.364;2022-07-29T02:05:50;95119.25;;;22.27;76.76
20612;BME280;10465;42.686;23.364;2022-07-29T02:08:18;95120.50;;;22.37;76.45
20612;BME280;10465;42.686;23.364;2022-07-29T02:10:46;95124.81;;;22.45;76.12
20612;BME280;10465;42.686;23.364;2022-07-29T02:13:13;95115.25;;;22.58;75.43
20612;BME280;10465;42.686;23.364;2022-07-29T02:15:41;95114.44;;;22.51;75.78
20612;BME280;10465;42.686;23.364;2022-07-29T02:18:09;95098.84;;;22.26;76.50
20612;BME280;10465;42.686;23.364;2022-07-29T02:20:37;95115.88;;;22.37;76.77
20612;BME280;10465;42.686;23.364;2022-07-29T02:23:04;95120.09;;;22.35;76.45
20612;BME280;10465;42.686;23.364;2022-07-29T02:25:30;95112.28;;;22.23;76.73
20612;BME280;10465;42.686;23.364;2022-07-29T02:27:59;95101.06;;;22.13;77.19
20612;BME280;10465;42.686;23.364;2022-07-29T02:30:26;95129.75;;;22.39;77.21
20612;BME280;10465;42.686;23.364;2022-07-29T02:32:54;95129.72;;;22.32;77.64
20612;BME280;10465;42.686;23.364;2022-07-29T02:35:21;95112.75;;;22.32;77.55
20612;BME280;10465;42.686;23.364;2022-07-29T02:37:48;95101.94;;;22.28;76.93
20612;BME280;10465;42.686;23.364;2022-07-29T02:40:35;95110.88;;;22.39;77.14
20612;BME280;10465;42.686;23.364;2022-07-29T02:43:05;95108.16;;;22.32;77.40
20612;BME280;10465;42.686;23.364;2022-07-29T02:45:32;95094.59;;;22.25;77.54
20612;BME280;10465;42.686;23.364;2022-07-29T02:47:59;95103.44;;;22.22;77.98
20612;BME280;10465;42.686;23.364;2022-07-29T02:50:34;95090.72;;;22.23;77.42
20612;BME280;10465;42.686;23.364;2022-07-29T02:53:07;95084.16;;;22.16;76.86
20612;BME280;10465;42.686;23.364;2022-07-29T02:55:40;95108.94;;;22.36;76.75
20612;BME280;10465;42.686;23.364;2022-07-29T03:00:40;95069.00;;;22.05;75.97
20612;BME280;10465;42.686;23.364;2022-07-29T03:03:12;95106.53;;;22.24;75.68
20612;BME280;10465;42.686;23.364;2022-07-29T03:05:38;95108.13;;;22.29;75.66
20612;BME280;10465;42.686;23.364;2022-07-29T03:08:05;95089.06;;;22.11;75.36
20612;BME280;10465;42.686;23.364;2022-07-29T03:10:32;95094.94;;;22.20;75.21
20612;BME280;10465;42.686;23.364;2022-07-29T03:13:00;95094.44;;;22.11;75.42
20612;BME280;10465;42.686;23.364;2022-07-29T03:15:26;95108.84;;;22.26;75.36
20612;BME280;10465;42.686;23.364;2022-07-29T03:17:52;95111.19;;;22.31;75.47
20612;BME280;10465;42.686;23.364;2022-07-29T03:20:18;95112.72;;;22.25;75.84
20612;BME280;10465;42.686;23.364;2022-07-29T03:22:44;95106.84;;;22.15;76.21
20612;BME280;10465;42.686;23.364;2022-07-29T03:25:13;95108.41;;;22.16;76.50
20612;BME280;10465;42.686;23.364;2022-07-29T03:27:39;95109.47;;;22.12;76.58
20612;BME280;10465;42.686;23.364;2022-07-29T03:30:06;95109.53;;;22.15;76.55
20612;BME280;10465;42.686;23.364;2022-07-29T03:32:34;95092.50;;;22.04;77.00
20612;BME280;10465;42.686;23.364;2022-07-29T03:35:00;95113.38;;;22.14;76.88
20612;BME280;10465;42.686;23.364;2022-07-29T03:37:26;95098.53;;;21.94;77.00
20612;BME280;10465;42.686;23.364;2022-07-29T03:39:52;95116.38;;;22.06;76.89
20612;BME280;10465;42.686;23.364;2022-07-29T03:42:24;95099.28;;;21.91;76.81
20612;BME280;10465;42.686;23.364;2022-07-29T03:44:51;95121.28;;;21.96;76.99
20612;BME280;10465;42.686;23.364;2022-07-29T03:47:22;95113.13;;;21.89;77.09
20612;BME280;10465;42.686;23.364;2022-07-29T03:49:50;95117.03;;;21.95;76.93
20612;BME280;10465;42.686;23.364;2022-07-29T03:52:17;95104.63;;;21.84;77.01
20612;BME280;10465;42.686;23.364;2022-07-29T03:54:43;95096.47;;;21.77;76.97
20612;BME280;10465;42.686;23.364;2022-07-29T03:57:11;95128.63;;;21.96;76.75
20612;BME280;10465;42.686;23.364;2022-07-29T03:59:37;95110.34;;;21.79;76.40
20612;BME280;10465;42.686;23.364;2022-07-29T04:02:04;95120.00;;;21.80;76.43
20612;BME280;10465;42.686;23.364;2022-07-29T04:04:34;95135.91;;;21.95;76.47
20612;BME280;10465;42.686;23.364;2022-07-29T04:07:00;95134.34;;;21.94;76.30
20612;BME280;10465;42.686;23.364;2022-07-29T04:09:26;95127.00;;;21.91;76.02
20612;BME280;10465;42.686;23.364;2022-07-29T04:11:51;95127.53;;;22.08;75.94
20612;BME280;10465;42.686;23.364;2022-07-29T04:14:17;95092.31;;;21.86;75.74
20612;BME280;10465;42.686;23.364;2022-07-29T04:16:43;95098.16;;;21.95;76.09
20612;BME280;10465;42.686;23.364;2022-07-29T04:19:08;95117.91;;;22.07;76.31
20612;BME280;10465;42.686;23.364;2022-07-29T04:21:40;95128.94;;;22.35;75.23
20612;BME280;10465;42.686;23.364;2022-07-29T04:24:07;95102.28;;;22.23;74.25
20612;BME280;10465;42.686;23.364;2022-07-29T04:26:33;95120.91;;;22.39;74.16
20612;BME280;10465;42.686;23.364;2022-07-29T04:28:59;95094.16;;;22.19;74.00
20612;BME280;10465;42.686;23.364;2022-07-29T04:31:24;95119.75;;;22.43;73.62
20612;BME280;10465;42.686;23.364;2022-07-29T04:33:50;95120.16;;;22.42;72.91
20612;BME280;10465;42.686;23.364;2022-07-29T04:36:16;95081.06;;;22.18;72.56
20612;BME280;10465;42.686;23.364;2022-07-29T04:38:41;95126.72;;;22.48;72.37
20612;BME280;10465;42.686;23.364;2022-07-29T04:41:07;95139.16;;;22.60;71.34
20612;BME280;10465;42.686;23.364;2022-07-29T04:43:34;95137.22;;;22.60;71.51
20612;BME280;10465;42.686;23.364;2022-07-29T04:46:00;95143.78;;;22.59;71.22
20612;BME280;10465;42.686;23.364;2022-07-29T04:48:26;95151.47;;;22.57;71.38
20612;BME280;10465;42.686;23.364;2022-07-29T04:50:51;95120.22;;;22.49;71.43
20612;BME280;10465;42.686;23.364;2022-07-29T04:53:17;95147.72;;;22.69;71.43
20612;BME280;10465;42.686;23.364;2022-07-29T04:55:43;95137.34;;;22.78;70.63
20612;BME280;10465;42.686;23.364;2022-07-29T04:58:10;95146.59;;;22.81;70.18
20612;BME280;10465;42.686;23.364;2022-07-29T05:00:35;95144.78;;;22.92;70.11
20612;BME280;10465;42.686;23.364;2022-07-29T05:03:01;95128.06;;;22.76;69.61
20612;BME280;10465;42.686;23.364;2022-07-29T05:05:26;95150.63;;;22.98;69.56
20612;BME280;10465;42.686;23.364;2022-07-29T05:07:52;95153.69;;;22.96;68.83
20612;BME280;10465;42.686;23.364;2022-07-29T05:10:17;95141.66;;;22.90;68.96
20612;BME280;10465;42.686;23.364;2022-07-29T05:12:42;95147.06;;;22.90;68.66
20612;BME280;10465;42.686;23.364;2022-07-29T05:15:08;95131.63;;;22.87;69.11
20612;BME280;10465;42.686;23.364;2022-07-29T05:17:34;95154.16;;;23.12;69.38
20612;BME280;10465;42.686;23.364;2022-07-29T05:20:00;95157.28;;;23.18;69.50
20612;BME280;10465;42.686;23.364;2022-07-29T05:22:25;95155.41;;;23.33;68.38
20612;BME280;10465;42.686;23.364;2022-07-29T05:24:51;95163.53;;;23.40;67.95
20612;BME280;10465;42.686;23.364;2022-07-29T05:27:16;95152.34;;;23.38;67.75
20612;BME280;10465;42.686;23.364;2022-07-29T05:29:42;95154.31;;;23.52;67.42
20612;BME280;10465;42.686;23.364;2022-07-29T05:32:07;95160.16;;;23.64;67.43
20612;BME280;10465;42.686;23.364;2022-07-29T05:34:33;95158.66;;;23.67;66.81
20612;BME280;10465;42.686;23.364;2022-07-29T05:36:58;95158.28;;;23.68;66.19
20612;BME280;10465;42.686;23.364;2022-07-29T05:39:24;95158.31;;;23.79;65.35
20612;BME280;10465;42.686;23.364;2022-07-29T05:41:50;95156.75;;;23.82;65.06
20612;BME280;10465;42.686;23.364;2022-07-29T05:44:15;95155.63;;;23.83;64.95
20612;BME280;10465;42.686;23.364;2022-07-29T05:46:41;95158.34;;;23.97;65.62
20612;BME280;10465;42.686;23.364;2022-07-29T05:49:06;95172.63;;;24.01;65.80
20612;BME280;10465;42.686;23.364;2022-07-29T05:51:35;95161.44;;;23.99;64.53
20612;BME280;10465;42.686;23.364;2022-07-29T05:54:01;95166.06;;;24.06;64.67
20612;BME280;10465;42.686;23.364;2022-07-29T05:56:27;95109.66;;;23.76;64.52
20612;BME280;10465;42.686;23.364;2022-07-29T05:58:53;95139.81;;;24.03;64.21
20612;BME280;10465;42.686;23.364;2022-07-29T06:01:18;95162.63;;;24.20;64.49
20612;BME280;10465;42.686;23.364;2022-07-29T06:03:44;95149.09;;;24.16;64.11
20612;BME280;10465;42.686;23.364;2022-07-29T06:06:09;95170.75;;;24.37;63.83
20612;BME280;10465;42.686;23.364;2022-07-29T06:08:35;95171.19;;;24.39;63.19
20612;BME280;10465;42.686;23.364;2022-07-29T06:11:02;95151.03;;;24.33;63.54
20612;BME280;10465;42.686;23.364;2022-07-29T06:13:27;95170.78;;;24.45;63.76
20612;BME280;10465;42.686;23.364;2022-07-29T06:15:53;95170.78;;;24.48;63.79
20612;BME280;10465;42.686;23.364;2022-07-29T06:18:18;95117.41;;;24.13;63.37
20612;BME280;10465;42.686;23.364;2022-07-29T06:20:46;95165.38;;;24.55;63.74
20612;BME280;10465;42.686;23.364;2022-07-29T06:23:11;95142.94;;;24.40;63.66
20612;BME280;10465;42.686;23.364;2022-07-29T06:25:39;95156.09;;;24.56;63.20
20612;BME280;10465;42.686;23.364;2022-07-29T06:28:05;95170.41;;;24.67;62.87
20612;BME280;10465;42.686;23.364;2022-07-29T06:30:30;95168.47;;;24.72;63.14
20612;BME280;10465;42.686;23.364;2022-07-29T06:32:56;95172.72;;;24.69;63.80
20612;BME280;10465;42.686;23.364;2022-07-29T06:35:21;95164.19;;;24.67;64.12
20612;BME280;10465;42.686;23.364;2022-07-29T06:37:47;95162.25;;;24.75;64.23
20612;BME280;10465;42.686;23.364;2022-07-29T06:40:12;95165.34;;;24.73;64.14
20612;BME280;10465;42.686;23.364;2022-07-29T06:42:56;95160.31;;;24.79;63.97
20612;BME280;10465;42.686;23.364;2022-07-29T06:45:22;95159.16;;;24.83;63.83
20612;BME280;10465;42.686;23.364;2022-07-29T06:47:48;95145.25;;;24.78;63.41
20612;BME280;10465;42.686;23.364;2022-07-29T06:50:15;95163.00;;;24.93;62.88
20612;BME280;10465;42.686;23.364;2022-07-29T06:52:40;95154.47;;;25.02;62.64
20612;BME280;10465;42.686;23.364;2022-07-29T06:55:08;95158.72;;;25.06;62.37
20612;BME280;10465;42.686;23.364;2022-07-29T06:57:34;95140.19;;;24.94;61.71
20612;BME280;10465;42.686;23.364;2022-07-29T07:00:00;95162.63;;;25.09;61.21
20612;BME280;10465;42.686;23.364;2022-07-29T07:02:25;95163.75;;;25.15;61.24
20612;BME280;10465;42.686;23.364;2022-07-29T07:04:51;95160.25;;;25.22;61.69
20612;BME280;10465;42.686;23.364;2022-07-29T07:07:17;95155.97;;;25.28;60.44
20612;BME280;10465;42.686;23.364;2022-07-29T07:09:42;95160.22;;;25.32;59.77
20612;BME280;10465;42.686;23.364;2022-07-29T07:12:08;95144.34;;;25.31;59.39
20612;BME280;10465;42.686;23.364;2022-07-29T07:14:33;95139.00;;;25.20;58.93
20612;BME280;10465;42.686;23.364;2022-07-29T07:16:59;95138.56;;;25.25;58.71
20612;BME280;10465;42.686;23.364;2022-07-29T07:19:26;95136.63;;;25.26;59.01
20612;BME280;10465;42.686;23.364;2022-07-29T07:21:54;95157.09;;;25.45;58.52
20612;BME280;10465;42.686;23.364;2022-07-29T07:24:20;95136.97;;;25.38;57.94
20612;BME280;10465;42.686;23.364;2022-07-29T07:26:46;95159.72;;;25.59;57.57
20612;BME280;10465;42.686;23.364;2022-07-29T07:29:11;95139.63;;;25.56;57.04
20612;BME280;10465;42.686;23.364;2022-07-29T07:31:37;95152.00;;;25.61;57.17
20612;BME280;10465;42.686;23.364;2022-07-29T07:34:03;95142.28;;;25.63;57.67
20612;BME280;10465;42.686;23.364;2022-07-29T07:36:28;95146.09;;;25.77;57.19
20612;BME280;10465;42.686;23.364;2022-07-29T07:38:53;95141.06;;;25.82;56.72
20612;BME280;10465;42.686;23.364;2022-07-29T07:41:19;95132.94;;;25.72;57.43
20612;BME280;10465;42.686;23.364;2022-07-29T07:43:45;95150.25;;;25.96;56.59
20612;BME280;10465;42.686;23.364;2022-07-29T07:46:11;95144.81;;;25.99;55.72
20612;BME280;10465;42.686;23.364;2022-07-29T07:48:36;95107.00;;;25.71;55.37
20612;BME280;10465;42.686;23.364;2022-07-29T07:51:02;95147.50;;;26.06;55.53
20612;BME280;10465;42.686;23.364;2022-07-29T07:53:27;95131.25;;;26.03;55.89
20612;BME280;10465;42.686;23.364;2022-07-29T07:55:55;95142.69;;;26.25;55.35
20612;BME280;10465;42.686;23.364;2022-07-29T07:58:20;95116.03;;;26.12;55.20
20612;BME280;10465;42.686;23.364;2022-07-29T08:00:46;95153.44;;;26.43;54.79
20612;BME280;10465;42.686;23.364;2022-07-29T08:03:12;95150.69;;;26.50;54.02
20612;BME280;10465;42.686;23.364;2022-07-29T08:05:39;95144.72;;;26.66;53.14
20612;BME280;10465;42.686;23.364;2022-07-29T08:08:05;95143.63;;;26.59;52.26
20612;BME280;10465;42.686;23.364;2022-07-29T08:10:33;95139.69;;;26.64;51.80
20612;BME280;10465;42.686;23.364;2022-07-29T08:13:17;95143.53;;;26.70;52.10
20612;BME280;10465;42.686;23.364;2022-07-29T08:15:43;95131.41;;;26.82;51.97
20612;BME280;10465;42.686;23.364;2022-07-29T08:18:13;95145.59;;;26.97;51.55
20612;BME280;10465;42.686;23.364;2022-07-29T08:20:39;95144.75;;;27.03;51.13
20612;BME280;10465;42.686;23.364;2022-07-29T08:23:07;95136.19;;;27.05;50.06
20612;BME280;10465;42.686;23.364;2022-07-29T08:25:36;95142.69;;;27.18;49.99
20612;BME280;10465;42.686;23.364;2022-07-29T08:28:03;95122.56;;;27.12;50.43
20612;BME280;10465;42.686;23.364;2022-07-29T08:30:28;95118.19;;;27.22;49.45
20612;BME280;10465;42.686;23.364;2022-07-29T08:32:54;95137.38;;;27.42;48.40
20612;BME280;10465;42.686;23.364;2022-07-29T08:35:21;95134.94;;;27.51;48.60
20612;BME280;10465;42.686;23.364;2022-07-29T08:37:47;95130.56;;;27.57;48.72
20612;BME280;10465;42.686;23.364;2022-07-29T08:40:12;95132.28;;;27.78;47.71
20612;BME280;10465;42.686;23.364;2022-07-29T08:42:39;95122.09;;;27.82;47.14
20612;BME280;10465;42.686;23.364;2022-07-29T08:45:05;95113.22;;;27.78;47.49
20612;BME280;10465;42.686;23.364;2022-07-29T08:47:30;95130.75;;;28.04;47.53
20612;BME280;10465;42.686;23.364;2022-07-29T08:49:56;95111.28;;;28.05;46.41
20612;BME280;10465;42.686;23.364;2022-07-29T08:52:25;95133.03;;;28.32;44.96
20612;BME280;10465;42.686;23.364;2022-07-29T08:54:52;95125.63;;;28.33;45.25
20612;BME280;10465;42.686;23.364;2022-07-29T08:57:19;95094.81;;;28.16;45.19
20612;BME280;10465;42.686;23.364;2022-07-29T08:59:46;95123.84;;;28.50;44.12
20612;BME280;10465;42.686;23.364;2022-07-29T09:02:20;95121.34;;;28.59;43.79
20612;BME280;10465;42.686;23.364;2022-07-29T09:04:46;95122.53;;;28.58;41.76
20612;BME280;10465;42.686;23.364;2022-07-29T09:07:17;95123.84;;;28.73;42.02
20612;BME280;10465;42.686;23.364;2022-07-29T09:09:43;95122.53;;;28.81;42.28
20612;BME280;10465;42.686;23.364;2022-07-29T09:12:10;95112.59;;;28.91;41.67
20612;BME280;10465;42.686;23.364;2022-07-29T09:14:40;95113.84;;;29.10;41.13
20612;BME280;10465;42.686;23.364;2022-07-29T09:17:06;95113.84;;;29.10;40.28
20612;BME280;10465;42.686;23.364;2022-07-29T09:19:34;95099.97;;;28.81;40.48
20612;BME280;10465;42.686;23.364;2022-07-29T09:22:01;95111.19;;;28.83;40.47
20612;BME280;10465;42.686;23.364;2022-07-29T09:27:00;95120.81;;;28.44;41.07
20612;BME280;10465;42.686;23.364;2022-07-29T09:29:25;95100.09;;;28.23;42.11
20612;BME280;10465;42.686;23.364;2022-07-29T09:31:53;95121.06;;;28.53;41.75
20612;BME280;10465;42.686;23.364;2022-07-29T09:34:27;95100.97;;;28.67;42.23
20612;BME280;10465;42.686;23.364;2022-07-29T09:36:57;95098.28;;;28.87;41.98
20612;BME280;10465;42.686;23.364;2022-07-29T09:39:33;95114.31;;;29.25;41.48
20612;BME280;10465;42.686;23.364;2022-07-29T09:42:03;95107.41;;;29.40;41.60
20612;BME280;10465;42.686;23.364;2022-07-29T09:44:46;95108.94;;;29.61;40.98
20612;BME280;10465;42.686;23.364;2022-07-29T09:47:13;95101.88;;;29.64;41.23
20612;BME280;10465;42.686;23.364;2022-07-29T09:49:59;95104.91;;;29.86;40.32
20612;BME280;10465;42.686;23.364;2022-07-29T09:52:29;95099.72;;;29.91;38.89
20612;BME280;10465;42.686;23.364;2022-07-29T09:55:08;95096.56;;;30.09;38.51
20612;BME280;10465;42.686;23.364;2022-07-29T09:57:34;95087.03;;;30.17;38.25
20612;BME280;10465;42.686;23.364;2022-07-29T10:00:07;95092.94;;;30.32;37.50
20612;BME280;10465;42.686;23.364;2022-07-29T10:02:35;95091.03;;;30.45;37.75
20612;BME280;10465;42.686;23.364;2022-07-29T10:05:03;95090.78;;;30.56;37.51
20612;BME280;10465;42.686;23.364;2022-07-29T10:10:10;95083.25;;;30.76;36.37
20612;BME280;10465;42.686;23.364;2022-07-29T10:13:00;95074.00;;;30.87;36.37
20612;BME280;10465;42.686;23.364;2022-07-29T10:15:28;95071.75;;;30.98;36.18
20612;BME280;10465;42.686;23.364;2022-07-29T10:17:58;95070.78;;;31.05;35.97
20612;BME280;10465;42.686;23.364;2022-07-29T10:20:24;95062.28;;;31.15;35.72
20612;BME280;10465;42.686;23.364;2022-07-29T10:22:51;95065.16;;;31.24;34.77
20612;BME280;10465;42.686;23.364;2022-07-29T10:25:17;95060.78;;;31.27;34.63
20612;BME280;10465;42.686;23.364;2022-07-29T10:27:46;95055.13;;;31.34;34.72
20612;BME280;10465;42.686;23.364;2022-07-29T10:30:14;95049.78;;;31.31;34.83
20612;BME280;10465;42.686;23.364;2022-07-29T10:35:22;95045.75;;;31.48;33.24
20612;BME280;10465;42.686;23.364;2022-07-29T10:41:49;95046.53;;;31.61;34.04
20612;BME280;10465;42.686;23.364;2022-07-29T10:44:08;95041.94;;;31.71;33.26
20612;BME280;10465;42.686;23.364;2022-07-29T10:46:38;95043.03;;;31.73;33.90
20612;BME280;10465;42.686;23.364;2022-07-29T10:49:12;95038.41;;;31.83;33.50
20612;BME280;10465;42.686;23.364;2022-07-29T11:07:35;95011.34;;;32.23;33.94
20612;BME280;10465;42.686;23.364;2022-07-29T11:15:15;95012.44;;;32.39;32.35
20612;BME280;10465;42.686;23.364;2022-07-29T11:28:54;94990.16;;;32.71;33.37
20612;BME280;10465;42.686;23.364;2022-07-29T11:39:36;94984.59;;;32.84;32.67
20612;BME280;10465;42.686;23.364;2022-07-29T11:47:59;94973.38;;;32.91;32.36
20612;BME280;10465;42.686;23.364;2022-07-29T11:50:32;94982.53;;;33.10;31.62
20612;BME280;10465;42.686;23.364;2022-07-29T11:52:59;94979.94;;;33.16;31.88
20612;BME280;10465;42.686;23.364;2022-07-29T11:55:25;94974.28;;;33.10;31.59
20612;BME280;10465;42.686;23.364;2022-07-29T11:57:58;94973.16;;;33.30;31.28
20612;BME280;10465;42.686;23.364;2022-07-29T12:02:54;94978.78;;;33.26;30.76
20612;BME280;10465;42.686;23.364;2022-07-29T12:05:20;94977.59;;;33.36;30.62
20612;BME280;10465;42.686;23.364;2022-07-29T12:07:47;94970.00;;;33.40;30.95
20612;BME280;10465;42.686;23.364;2022-07-29T12:10:13;94964.28;;;33.47;30.56
20612;BME280;10465;42.686;23.364;2022-07-29T12:12:39;94970.63;;;33.44;30.97
20612;BME280;10465;42.686;23.364;2022-07-29T12:15:17;94969.00;;;33.47;30.61
20612;BME280;10465;42.686;23.364;2022-07-29T12:17:46;94968.09;;;33.50;30.62
20612;BME280;10465;42.686;23.364;2022-07-29T12:20:12;94963.38;;;33.51;30.86
20612;BME280;10465;42.686;23.364;2022-07-29T12:22:42;94958.66;;;33.51;31.19
20612;BME280;10465;42.686;23.364;2022-07-29T12:25:10;94970.28;;;33.64;30.90
20612;BME280;10465;42.686;23.364;2022-07-29T12:27:37;94964.19;;;33.69;30.07
20612;BME280;10465;42.686;23.364;2022-07-29T12:30:14;94973.78;;;33.65;30.16
20612;BME280;10465;42.686;23.364;2022-07-29T12:32:45;94960.53;;;33.72;30.35
20612;BME280;10465;42.686;23.364;2022-07-29T12:35:14;94957.53;;;33.80;30.38
20612;BME280;10465;42.686;23.364;2022-07-29T12:37:42;94953.19;;;33.60;30.54
20612;BME280;10465;42.686;23.364;2022-07-29T12:40:09;94928.97;;;33.28;31.09
20612;BME280;10465;42.686;23.364;2022-07-29T12:42:36;94939.22;;;33.05;30.63
20612;BME280;10465;42.686;23.364;2022-07-29T12:45:03;94954.84;;;32.95;30.95
20612;BME280;10465;42.686;23.364;2022-07-29T12:47:29;94957.59;;;32.95;30.53
20612;BME280;10465;42.686;23.364;2022-07-29T12:50:14;94952.66;;;33.12;30.94
20612;BME280;10465;42.686;23.364;2022-07-29T12:52:44;94947.28;;;33.31;30.67
20612;BME280;10465;42.686;23.364;2022-07-29T12:55:10;94939.69;;;33.44;30.11
20612;BME280;10465;42.686;23.364;2022-07-29T12:57:47;94935.78;;;33.54;30.00
20612;BME280;10465;42.686;23.364;2022-07-29T13:00:14;94917.34;;;33.55;29.85
20612;BME280;10465;42.686;23.364;2022-07-29T13:02:40;94932.94;;;33.67;29.96
20612;BME280;10465;42.686;23.364;2022-07-29T13:05:09;94928.22;;;33.67;30.24
20612;BME280;10465;42.686;23.364;2022-07-29T13:07:35;94904.38;;;33.55;30.95
20612;BME280;10465;42.686;23.364;2022-07-29T13:12:39;94911.59;;;33.71;29.96
20612;BME280;10465;42.686;23.364;2022-07-29T13:15:25;94929.13;;;33.74;29.88
20612;BME280;10465;42.686;23.364;2022-07-29T13:17:50;94905.78;;;33.69;29.68
20612;BME280;10465;42.686;23.364;2022-07-29T13:20:16;94919.03;;;33.70;29.15
20612;BME280;10465;42.686;23.364;2022-07-29T13:22:42;94905.34;;;33.30;29.79
20612;BME280;10465;42.686;23.364;2022-07-29T13:25:08;94917.50;;;33.60;29.80
20612;BME280;10465;42.686;23.364;2022-07-29T13:27:37;94902.56;;;33.61;29.85
20612;BME280;10465;42.686;23.364;2022-07-29T13:30:07;94905.50;;;33.76;30.45
20612;BME280;10465;42.686;23.364;2022-07-29T13:32:33;94903.38;;;33.71;30.23
20612;BME280;10465;42.686;23.364;2022-07-29T13:35:06;94912.03;;;33.69;29.85
20612;BME280;10465;42.686;23.364;2022-07-29T13:37:33;94903.16;;;33.47;30.47
20612;BME280;10465;42.686;23.364;2022-07-29T13:40:00;94887.84;;;33.37;30.51
20612;BME280;10465;42.686;23.364;2022-07-29T13:42:28;94905.59;;;33.54;30.61
20612;BME280;10465;42.686;23.364;2022-07-29T13:44:53;94894.47;;;33.58;31.18
20612;BME280;10465;42.686;23.364;2022-07-29T13:47:19;94890.69;;;33.74;30.60
20612;BME280;10465;42.686;23.364;2022-07-29T13:49:45;94894.84;;;33.87;30.64
20612;BME280;10465;42.686;23.364;2022-07-29T13:52:10;94886.72;;;33.75;29.80
20612;BME280;10465;42.686;23.364;2022-07-29T13:54:36;94894.34;;;33.30;30.22
20612;BME280;10465;42.686;23.364;2022-07-29T13:57:04;94876.72;;;33.31;30.35
20612;BME280;10465;42.686;23.364;2022-07-29T13:59:29;94891.25;;;33.50;30.38
20612;BME280;10465;42.686;23.364;2022-07-29T14:01:55;94904.25;;;33.18;30.20
20612;BME280;10465;42.686;23.364;2022-07-29T14:04:20;94900.13;;;32.92;30.89
20612;BME280;10465;42.686;23.364;2022-07-29T14:06:48;94846.25;;;32.67;31.31
20612;BME280;10465;42.686;23.364;2022-07-29T14:09:13;94879.09;;;32.89;31.28
20612;BME280;10465;42.686;23.364;2022-07-29T14:11:39;94901.31;;;32.82;30.84